Flugplatz Herzogenaurach

Für EDQH sind keine METAR/TAF Berichte vorhanden.
Es werden die Flugwettermeldungen vom Flugplatz Nuremberg in 17 km Entfernung angezeigt.

Bericht für EDDN

vom 31.05. um 10:20 UTC

Wind 7 kt aus 50°

Sichtweite 10 km oder mehr

gute Sicht, keine Wolken < 5000 ft, keine CB, keine Wettererscheinungen (CAVOK)

Temperatur 18.0°C

Taupunkt 3.0°C

Luftfeuchtigkeit 37%

Luftdruck 1020 hPa

keine wesentliche Wetteränderung innerhalb den nächsten 2 Stunden zu erwarten

EDDN 311020Z 05007KT 350V110 CAVOK 18/03 Q1020 NOSIG

Prognose für EDDN

vom 31.05. um 05:00 UTC

Zwischen 06:00 UTC und 07:00 UTC

Wind 3 kt aus 20°

Sichtweite 10 km oder mehr

keine signifikanten Wettererscheinungen

keine Wolken


Zwischen 07:00 und 09:00 UTC übergehend zu

Wind 8 kt aus 30°

Sichtweite 10 km oder mehr

keine signifikanten Wettererscheinungen

keine Wolken


Zwischen 18:00 und 20:00 UTC übergehend zu

variable Windrichtung mit 2 kt

Sichtweite 10 km oder mehr

keine signifikanten Wettererscheinungen

keine Wolken

TAF EDDN 310500Z 3106/0106 02003KT CAVOK BECMG 3107/3109 03008KT BECMG 3118/3120 VRB02KT
Impressum